Time;durP1;ratioP1;P1;durP2;ratioP2;P2;SDS_P1;SDS_P2;PMS_P1;PMS_P2;Temp;Humidity;BMP_temperature;BMP_pressure;BME280_temperature;BME280_humidity;BME280_pressure;Samples;Min_cycle;Max_cycle;Signal;HPM_P1;HPM_P2
2023/09/14 00:01:23;;;;;;;4.20;3.42;;;;;;;;;;5032864;28;20059;-86
2023/09/14 00:03:52;;;;;;;3.85;2.85;;;;;;;;;;5035727;28;20059;-86
2023/09/14 00:06:19;;;;;;;10.10;3.28;;;;;;;;;;5035526;28;20045;-86
2023/09/14 00:08:46;;;;;;;5.97;3.28;;;;;;;;;;5032317;28;20057;-86
2023/09/14 00:11:14;;;;;;;5.63;3.05;;;;;;;;;;5048516;28;20515;-87
2023/09/14 00:13:41;;;;;;;5.65;3.20;;;;;;;;;;5027377;28;20413;-86
2023/09/14 00:16:09;;;;;;;10.63;3.63;;;;;;;;;;5035863;28;20049;-86
2023/09/14 00:18:36;;;;;;;10.85;2.90;;;;;;;;;;5035580;28;20420;-87
2023/09/14 00:21:03;;;;;;;5.03;3.22;;;;;;;;;;5035482;28;20049;-86
2023/09/14 00:23:31;;;;;;;12.10;2.70;;;;;;;;;;5035271;28;20067;-86
2023/09/14 00:25:58;;;;;;;7.35;2.60;;;;;;;;;;5035585;28;20107;-87
2023/09/14 00:28:25;;;;;;;11.85;2.85;;;;;;;;;;5053019;28;20084;-87
2023/09/14 00:30:52;;;;;;;9.05;2.80;;;;;;;;;;5038853;28;20060;-87
2023/09/14 00:33:22;;;;;;;4.80;3.00;;;;;;;;;;5043471;28;20041;-87
2023/09/14 00:35:49;;;;;;;3.60;2.80;;;;;;;;;;5035489;28;20052;-86
2023/09/14 00:38:17;;;;;;;8.20;2.58;;;;;;;;;;5031780;28;20057;-86
2023/09/14 00:40:44;;;;;;;6.00;2.45;;;;;;;;;;5035215;28;20081;-87
2023/09/14 00:43:11;;;;;;;7.25;2.53;;;;;;;;;;5035451;28;20493;-87
2023/09/14 00:45:39;;;;;;;7.35;2.58;;;;;;;;;;5035294;28;20053;-86
2023/09/14 00:48:07;;;;;;;5.85;2.40;;;;;;;;;;5035306;28;20568;-86
2023/09/14 00:50:35;;;;;;;4.03;2.50;;;;;;;;;;5036862;28;20489;-87
2023/09/14 00:53:07;;;;;;;2.67;2.38;;;;;;;;;;5039000;28;20044;-86
2023/09/14 00:55:34;;;;;;;7.55;2.83;;;;;;;;;;5037092;28;20136;-86
2023/09/14 00:58:02;;;;;;;8.18;3.03;;;;;;;;;;5039394;28;20473;-86
2023/09/14 01:00:31;;;;;;;3.88;2.60;;;;;;;;;;5038805;28;20053;-87
2023/09/14 01:03:00;;;;;;;3.10;2.15;;;;;;;;;;5039583;28;20049;-86
2023/09/14 01:05:30;;;;;;;5.28;2.30;;;;;;;;;;5039216;28;20056;-86
2023/09/14 01:07:58;;;;;;;4.13;2.33;;;;;;;;;;5039285;28;20139;-87
2023/09/14 01:10:26;;;;;;;2.85;2.55;;;;;;;;;;5039114;28;20055;-86
2023/09/14 01:12:53;;;;;;;4.28;2.83;;;;;;;;;;5039015;28;20409;-86
2023/09/14 01:15:33;;;;;;;5.10;2.63;;;;;;;;;;5038522;28;20057;-86
2023/09/14 01:18:05;;;;;;;2.65;2.42;;;;;;;;;;5038999;28;20067;-87
2023/09/14 01:20:41;;;;;;;5.38;2.70;;;;;;;;;;5038662;28;20394;-87
2023/09/14 01:23:28;;;;;;;5.97;2.58;;;;;;;;;;5038545;28;20413;-87
2023/09/14 01:25:56;;;;;;;4.18;2.65;;;;;;;;;;5032107;28;20516;-87
2023/09/14 01:28:23;;;;;;;5.40;2.78;;;;;;;;;;5038495;28;20119;-87
2023/09/14 01:30:50;;;;;;;3.08;2.80;;;;;;;;;;5038537;28;20073;-87
2023/09/14 01:33:20;;;;;;;5.80;2.83;;;;;;;;;;5038725;28;20057;-87
2023/09/14 01:35:54;;;;;;;4.97;2.60;;;;;;;;;;5038518;28;20076;-86
2023/09/14 01:38:22;;;;;;;4.85;2.30;;;;;;;;;;5034576;28;20092;-86
2023/09/14 01:40:50;;;;;;;2.63;2.40;;;;;;;;;;5034685;28;20076;-86
2023/09/14 01:43:18;;;;;;;3.58;2.65;;;;;;;;;;5034742;28;20049;-86
2023/09/14 01:45:46;;;;;;;3.63;2.78;;;;;;;;;;5034835;28;20077;-86
2023/09/14 01:48:16;;;;;;;4.20;2.58;;;;;;;;;;5038874;28;20045;-86
2023/09/14 01:50:44;;;;;;;3.30;2.63;;;;;;;;;;5032876;28;20478;-86
2023/09/14 01:53:11;;;;;;;5.72;2.58;;;;;;;;;;5035521;28;20124;-86
2023/09/14 01:55:38;;;;;;;3.70;2.05;;;;;;;;;;5034537;28;20053;-86
2023/09/14 01:58:06;;;;;;;4.30;2.17;;;;;;;;;;5034453;28;20050;-86
2023/09/14 02:00:33;;;;;;;5.43;2.38;;;;;;;;;;5033912;28;20521;-86
2023/09/14 02:03:00;;;;;;;5.05;2.60;;;;;;;;;;5034011;28;20486;-87
2023/09/14 02:05:28;;;;;;;3.92;2.25;;;;;;;;;;5034128;28;20449;-86
2023/09/14 02:07:56;;;;;;;3.38;2.60;;;;;;;;;;5034223;28;20053;-86
2023/09/14 02:10:23;;;;;;;2.95;2.58;;;;;;;;;;5034002;28;20083;-86
2023/09/14 02:12:51;;;;;;;5.32;2.63;;;;;;;;;;5033869;28;20481;-86
2023/09/14 02:15:18;;;;;;;7.25;2.63;;;;;;;;;;5033863;28;20061;-86
2023/09/14 02:17:45;;;;;;;5.00;2.63;;;;;;;;;;5033795;28;20056;-87
2023/09/14 02:20:13;;;;;;;4.00;2.63;;;;;;;;;;5034876;28;20048;-86
2023/09/14 02:22:40;;;;;;;3.33;2.30;;;;;;;;;;5033775;28;20056;-87
2023/09/14 02:25:07;;;;;;;2.33;2.20;;;;;;;;;;5030207;28;20466;-86
2023/09/14 02:27:36;;;;;;;5.28;2.03;;;;;;;;;;5032979;28;20045;-87
2023/09/14 02:30:04;;;;;;;4.13;2.33;;;;;;;;;;5033705;28;20050;-86
2023/09/14 02:32:31;;;;;;;5.45;2.38;;;;;;;;;;5033475;28;20061;-86
2023/09/14 02:34:58;;;;;;;9.73;2.70;;;;;;;;;;5033848;28;20061;-86
2023/09/14 02:37:26;;;;;;;2.95;2.35;;;;;;;;;;5034712;28;20069;-86
2023/09/14 02:39:53;;;;;;;3.10;2.47;;;;;;;;;;5033270;28;20057;-86
2023/09/14 02:42:20;;;;;;;3.40;2.67;;;;;;;;;;5033247;28;20059;-87
2023/09/14 02:44:47;;;;;;;3.53;2.38;;;;;;;;;;5033176;28;20084;-87
2023/09/14 02:47:15;;;;;;;3.20;2.55;;;;;;;;;;5029869;28;20145;-86
2023/09/14 02:49:42;;;;;;;3.45;2.45;;;;;;;;;;5017212;28;20069;-86
2023/09/14 02:52:09;;;;;;;6.13;2.30;;;;;;;;;;5034318;28;20049;-86
2023/09/14 02:54:39;;;;;;;4.32;2.58;;;;;;;;;;5025975;28;20091;-86
2023/09/14 02:57:07;;;;;;;5.25;2.30;;;;;;;;;;5033267;28;20133;-86
2023/09/14 02:59:34;;;;;;;8.35;2.35;;;;;;;;;;5033133;28;20084;-85
2023/09/14 03:02:02;;;;;;;4.30;2.70;;;;;;;;;;5033135;28;20081;-86
2023/09/14 03:04:29;;;;;;;4.20;2.38;;;;;;;;;;5033150;28;20497;-86
2023/09/14 03:06:56;;;;;;;4.13;2.05;;;;;;;;;;5038738;28;20059;-87
2023/09/14 03:09:24;;;;;;;5.18;2.63;;;;;;;;;;5030658;28;20050;-86
2023/09/14 03:11:51;;;;;;;6.97;2.40;;;;;;;;;;5033204;28;20046;-86
2023/09/14 03:14:18;;;;;;;5.07;2.75;;;;;;;;;;5033281;28;20466;-86
2023/09/14 03:16:45;;;;;;;4.88;2.72;;;;;;;;;;5032945;28;20107;-86
2023/09/14 03:19:13;;;;;;;3.63;2.30;;;;;;;;;;5033876;28;20049;-85
2023/09/14 03:21:40;;;;;;;5.75;2.45;;;;;;;;;;5032532;28;20453;-86
2023/09/14 03:24:07;;;;;;;4.47;2.20;;;;;;;;;;5032775;28;20045;-87
2023/09/14 03:26:35;;;;;;;4.57;2.50;;;;;;;;;;5032253;28;20053;-87
2023/09/14 03:29:02;;;;;;;6.65;2.45;;;;;;;;;;5032705;28;20153;-86
2023/09/14 03:31:29;;;;;;;5.57;2.50;;;;;;;;;;5032641;28;20061;-87
2023/09/14 03:33:56;;;;;;;3.08;2.03;;;;;;;;;;5033654;28;20046;-86
2023/09/14 03:36:24;;;;;;;4.05;2.38;;;;;;;;;;5033466;28;20053;-86
2023/09/14 03:38:51;;;;;;;2.17;2.00;;;;;;;;;;5032338;28;20050;-86
2023/09/14 03:41:18;;;;;;;5.35;2.70;;;;;;;;;;5024256;28;20085;-86
2023/09/14 03:43:45;;;;;;;6.70;2.65;;;;;;;;;;5033783;28;20106;-87
2023/09/14 03:46:14;;;;;;;4.78;2.60;;;;;;;;;;5033507;28;20413;-86
2023/09/14 03:48:41;;;;;;;3.22;2.92;;;;;;;;;;5025240;28;20119;-87
2023/09/14 03:51:09;;;;;;;5.68;3.47;;;;;;;;;;5032186;28;20148;-87
2023/09/14 03:53:36;;;;;;;5.00;3.22;;;;;;;;;;5033088;28;20061;-87
2023/09/14 03:56:03;;;;;;;5.32;3.13;;;;;;;;;;5032355;28;20042;-86
2023/09/14 03:58:31;;;;;;;8.07;2.80;;;;;;;;;;5031789;28;20103;-85
2023/09/14 04:00:59;;;;;;;5.20;2.75;;;;;;;;;;5032874;28;20053;-86
2023/09/14 04:03:26;;;;;;;7.10;2.97;;;;;;;;;;5032061;28;20387;-86
2023/09/14 04:05:54;;;;;;;8.32;2.30;;;;;;;;;;5024903;28;20060;-86
2023/09/14 04:08:23;;;;;;;4.53;2.88;;;;;;;;;;5031602;28;20053;-85
2023/09/14 04:10:51;;;;;;;4.40;2.80;;;;;;;;;;5033222;28;20099;-87
2023/09/14 04:13:30;;;;;;;4.55;2.85;;;;;;;;;;5032015;28;20129;-85
2023/09/14 04:15:58;;;;;;;2.97;2.40;;;;;;;;;;5032215;28;20049;-86
2023/09/14 04:18:28;;;;;;;3.08;2.78;;;;;;;;;;5031939;28;20049;-86
2023/09/14 04:20:56;;;;;;;3.85;2.97;;;;;;;;;;5031949;28;20049;-86
2023/09/14 04:23:23;;;;;;;2.75;2.55;;;;;;;;;;5033157;28;20460;-86
2023/09/14 04:25:51;;;;;;;8.30;2.95;;;;;;;;;;5036269;28;20099;-85
2023/09/14 04:28:19;;;;;;;4.60;2.72;;;;;;;;;;5035990;28;20514;-87
2023/09/14 04:30:48;;;;;;;3.88;2.60;;;;;;;;;;5036910;28;20556;-87
2023/09/14 04:33:16;;;;;;;8.00;2.92;;;;;;;;;;5035689;28;20493;-86
2023/09/14 04:35:44;;;;;;;7.40;2.47;;;;;;;;;;5027986;28;20050;-86
2023/09/14 04:38:11;;;;;;;5.65;3.20;;;;;;;;;;5035661;28;20112;-86
2023/09/14 04:40:40;;;;;;;7.32;2.72;;;;;;;;;;5036731;28;20085;-86
2023/09/14 04:43:07;;;;;;;10.77;3.03;;;;;;;;;;5036066;28;20486;-87
2023/09/14 04:45:34;;;;;;;7.68;2.80;;;;;;;;;;5036057;28;20052;-86
2023/09/14 04:48:02;;;;;;;9.05;3.35;;;;;;;;;;5035763;28;20103;-86
2023/09/14 04:50:29;;;;;;;5.43;2.75;;;;;;;;;;5036598;28;20466;-86
2023/09/14 04:52:57;;;;;;;3.90;3.15;;;;;;;;;;5035659;28;20053;-86
2023/09/14 04:55:24;;;;;;;4.00;2.88;;;;;;;;;;5035438;28;20080;-86
2023/09/14 04:57:52;;;;;;;9.60;3.00;;;;;;;;;;5035671;28;20049;-87
2023/09/14 05:00:19;;;;;;;6.75;2.72;;;;;;;;;;5035253;28;20133;-87
2023/09/14 05:02:47;;;;;;;7.40;4.50;;;;;;;;;;5035654;28;20049;-86
2023/09/14 05:05:14;;;;;;;13.88;10.60;;;;;;;;;;5035483;28;20072;-86
2023/09/14 05:07:44;;;;;;;31.20;19.67;;;;;;;;;;5027663;28;20524;-86
2023/09/14 05:10:13;;;;;;;40.67;29.10;;;;;;;;;;5036343;28;20099;-87
2023/09/14 05:12:40;;;;;;;27.35;12.35;;;;;;;;;;5036238;28;20485;-88
2023/09/14 05:15:08;;;;;;;8.05;4.97;;;;;;;;;;5035333;28;20060;-87
2023/09/14 05:17:35;;;;;;;35.80;19.30;;;;;;;;;;5035293;28;20103;-87
2023/09/14 05:20:09;;;;;;;12.00;6.10;;;;;;;;;;5035272;28;20540;-86
2023/09/14 05:22:38;;;;;;;8.38;4.40;;;;;;;;;;5036103;28;20089;-86
2023/09/14 05:25:06;;;;;;;5.70;4.53;;;;;;;;;;5036203;28;20551;-87
2023/09/14 05:27:38;;;;;;;8.80;7.72;;;;;;;;;;5034654;28;20055;-86
2023/09/14 05:30:06;;;;;;;8.02;4.32;;;;;;;;;;5029960;28;20041;-86
2023/09/14 05:32:33;;;;;;;9.70;5.63;;;;;;;;;;5027112;28;20042;-86
2023/09/14 05:35:00;;;;;;;6.75;6.00;;;;;;;;;;5029336;28;20053;-86
2023/09/14 05:37:28;;;;;;;6.78;5.90;;;;;;;;;;5032999;28;20140;-86
2023/09/14 05:39:55;;;;;;;18.15;14.77;;;;;;;;;;5032640;28;20065;-86
2023/09/14 05:42:23;;;;;;;34.88;28.30;;;;;;;;;;5034430;28;20057;-86
2023/09/14 05:44:50;;;;;;;23.73;17.80;;;;;;;;;;5034966;28;20080;-88
2023/09/14 05:47:17;;;;;;;15.50;4.78;;;;;;;;;;5034464;28;20480;-87
2023/09/14 05:49:45;;;;;;;18.15;5.20;;;;;;;;;;5035735;28;20152;-86
2023/09/14 05:52:12;;;;;;;18.60;7.40;;;;;;;;;;5034098;28;20053;-86
2023/09/14 05:54:40;;;;;;;20.52;7.03;;;;;;;;;;5035370;28;20077;-86
2023/09/14 05:57:09;;;;;;;9.23;3.55;;;;;;;;;;5034494;28;20053;-86
2023/09/14 05:59:37;;;;;;;28.35;6.35;;;;;;;;;;5034385;28;20080;-86
2023/09/14 06:02:04;;;;;;;22.58;4.63;;;;;;;;;;5031119;28;20050;-86
2023/09/14 06:04:32;;;;;;;11.38;3.67;;;;;;;;;;5032782;28;20486;-86
2023/09/14 06:07:00;;;;;;;8.43;3.83;;;;;;;;;;5035107;28;20060;-86
2023/09/14 06:09:27;;;;;;;10.85;4.65;;;;;;;;;;5035048;28;20057;-86
2023/09/14 06:11:54;;;;;;;12.65;5.30;;;;;;;;;;5030744;28;20046;-86
2023/09/14 06:14:22;;;;;;;4.50;3.10;;;;;;;;;;5031444;28;20108;-85
2023/09/14 06:16:50;;;;;;;27.25;6.20;;;;;;;;;;5030498;28;20099;-86
2023/09/14 06:19:18;;;;;;;15.75;5.53;;;;;;;;;;5030348;28;20053;-86
2023/09/14 06:21:45;;;;;;;20.75;6.53;;;;;;;;;;5030875;28;20494;-86
2023/09/14 06:24:12;;;;;;;24.00;5.80;;;;;;;;;;5030090;28;20129;-85
2023/09/14 06:26:40;;;;;;;17.63;5.90;;;;;;;;;;5033800;28;20053;-86
2023/09/14 06:29:11;;;;;;;19.92;5.55;;;;;;;;;;5033566;28;20076;-86
2023/09/14 06:31:39;;;;;;;16.92;5.63;;;;;;;;;;5033649;28;20082;-85
2023/09/14 06:34:06;;;;;;;30.35;5.90;;;;;;;;;;5034492;28;20056;-86
2023/09/14 06:36:34;;;;;;;10.77;3.75;;;;;;;;;;5033204;28;20057;-85
2023/09/14 06:39:01;;;;;;;17.45;3.80;;;;;;;;;;5033162;28;20560;-85
2023/09/14 06:41:28;;;;;;;24.23;4.25;;;;;;;;;;5033064;28;20123;-87
2023/09/14 06:43:56;;;;;;;26.25;5.53;;;;;;;;;;5033340;28;20049;-86
2023/09/14 06:46:24;;;;;;;22.88;4.13;;;;;;;;;;5033127;28;20049;-87
2023/09/14 06:48:51;;;;;;;20.40;4.18;;;;;;;;;;5033410;28;20141;-86
2023/09/14 06:51:19;;;;;;;8.73;3.58;;;;;;;;;;5030044;28;20050;-85
2023/09/14 06:53:46;;;;;;;8.88;3.92;;;;;;;;;;5033179;28;20046;-85
2023/09/14 06:56:15;;;;;;;14.07;3.67;;;;;;;;;;5033846;28;20049;-85
2023/09/14 06:58:42;;;;;;;13.32;4.38;;;;;;;;;;5021571;28;20136;-86
2023/09/14 07:01:09;;;;;;;15.02;3.67;;;;;;;;;;5028406;28;20052;-86
2023/09/14 07:03:37;;;;;;;8.88;3.20;;;;;;;;;;5034120;28;20148;-86
2023/09/14 07:06:04;;;;;;;7.28;3.20;;;;;;;;;;5034088;28;20052;-88
2023/09/14 07:08:31;;;;;;;12.10;3.40;;;;;;;;;;5031759;28;20053;-87
2023/09/14 07:10:59;;;;;;;12.40;4.07;;;;;;;;;;5032954;28;20091;-86
2023/09/14 07:13:26;;;;;;;12.85;3.75;;;;;;;;;;5032960;28;20111;-88
2023/09/14 07:15:54;;;;;;;16.33;4.35;;;;;;;;;;5034038;28;20052;-87
2023/09/14 07:18:28;;;;;;;10.05;3.90;;;;;;;;;;5032671;28;20080;-86
2023/09/14 07:20:56;;;;;;;18.38;4.75;;;;;;;;;;5033877;28;20056;-89
2023/09/14 07:23:24;;;;;;;12.30;4.35;;;;;;;;;;5032605;28;20115;-88
2023/09/14 07:25:52;;;;;;;28.35;7.00;;;;;;;;;;5032657;28;20489;-86
2023/09/14 07:28:20;;;;;;;44.17;9.40;;;;;;;;;;5024130;28;20441;-86
2023/09/14 07:30:48;;;;;;;37.10;8.75;;;;;;;;;;5032558;28;20087;-86
2023/09/14 07:33:16;;;;;;;34.92;7.85;;;;;;;;;;5032434;28;20512;-86
2023/09/14 07:35:47;;;;;;;24.27;5.78;;;;;;;;;;5026011;28;20506;-87
2023/09/14 07:38:15;;;;;;;17.17;5.13;;;;;;;;;;5032067;28;20502;-86
2023/09/14 07:40:42;;;;;;;20.42;5.35;;;;;;;;;;5024270;28;20073;-86
2023/09/14 07:43:10;;;;;;;11.10;4.03;;;;;;;;;;5032178;28;20049;-85
2023/09/14 07:45:38;;;;;;;5.00;2.92;;;;;;;;;;5032344;28;20103;-85
2023/09/14 07:48:06;;;;;;;9.30;3.05;;;;;;;;;;5032352;28;20136;-85
2023/09/14 07:50:36;;;;;;;7.95;2.50;;;;;;;;;;5033042;28;20457;-86
2023/09/14 07:53:03;;;;;;;4.53;2.90;;;;;;;;;;5032464;28;20052;-87
2023/09/14 07:55:31;;;;;;;5.25;2.40;;;;;;;;;;5033355;28;20477;-87
2023/09/14 07:57:58;;;;;;;4.65;2.40;;;;;;;;;;5032365;28;20103;-86
2023/09/14 08:00:26;;;;;;;5.25;2.70;;;;;;;;;;5033211;28;20053;-88
2023/09/14 08:02:54;;;;;;;5.35;2.20;;;;;;;;;;5032182;28;20413;-87
2023/09/14 08:05:21;;;;;;;4.25;2.53;;;;;;;;;;5031947;28;20057;-86
2023/09/14 08:07:48;;;;;;;5.72;2.50;;;;;;;;;;5032206;28;20053;-86
2023/09/14 08:10:16;;;;;;;5.50;2.15;;;;;;;;;;5033080;28;20045;-87
2023/09/14 08:12:43;;;;;;;4.18;1.98;;;;;;;;;;5032041;28;20440;-87
2023/09/14 08:15:11;;;;;;;5.72;2.40;;;;;;;;;;5032396;28;20060;-87
2023/09/14 08:17:38;;;;;;;3.10;1.90;;;;;;;;;;5031965;28;20049;-85
2023/09/14 08:20:06;;;;;;;3.67;2.03;;;;;;;;;;5032092;28;20056;-86
2023/09/14 08:22:33;;;;;;;4.78;1.80;;;;;;;;;;5031569;28;20056;-84
2023/09/14 08:25:02;;;;;;;5.55;2.05;;;;;;;;;;5031960;28;20080;-84
2023/09/14 08:27:30;;;;;;;3.85;1.88;;;;;;;;;;5031799;28;20053;-86
2023/09/14 08:29:57;;;;;;;3.63;1.85;;;;;;;;;;5032967;28;20077;-85
2023/09/14 08:32:24;;;;;;;5.05;2.20;;;;;;;;;;5031813;28;20057;-86
2023/09/14 08:34:57;;;;;;;5.03;2.10;;;;;;;;;;5031919;28;20045;-85
2023/09/14 08:37:24;;;;;;;4.72;2.20;;;;;;;;;;5032391;28;20111;-87
2023/09/14 08:39:52;;;;;;;3.88;2.03;;;;;;;;;;5031845;28;20077;-85
2023/09/14 08:42:20;;;;;;;5.20;2.38;;;;;;;;;;5028969;28;20057;-83
2023/09/14 08:44:50;;;;;;;4.38;2.45;;;;;;;;;;5032229;28;20045;-86
2023/09/14 08:47:17;;;;;;;5.47;2.25;;;;;;;;;;5032021;28;20054;-85
2023/09/14 08:49:46;;;;;;;4.22;2.25;;;;;;;;;;5032058;28;20054;-88
2023/09/14 08:52:16;;;;;;;3.85;2.67;;;;;;;;;;5032130;28;20053;-86
2023/09/14 08:54:43;;;;;;;5.65;2.35;;;;;;;;;;5031866;28;20052;-86
2023/09/14 08:57:11;;;;;;;2.35;2.15;;;;;;;;;;5028784;28;20058;-86
2023/09/14 08:59:39;;;;;;;2.92;2.35;;;;;;;;;;5031354;28;20050;-85
2023/09/14 09:02:12;;;;;;;4.97;2.33;;;;;;;;;;5028405;28;20461;-86
2023/09/14 09:04:40;;;;;;;6.10;2.72;;;;;;;;;;5031912;28;20053;-86
2023/09/14 09:07:08;;;;;;;5.45;3.00;;;;;;;;;;5032668;28;20042;-85
2023/09/14 09:09:36;;;;;;;15.52;3.15;;;;;;;;;;5032972;28;20058;-86
2023/09/14 09:12:03;;;;;;;4.68;2.58;;;;;;;;;;5034519;28;20080;-86
2023/09/14 09:14:31;;;;;;;5.63;3.10;;;;;;;;;;5035318;28;20072;-85
2023/09/14 09:16:59;;;;;;;5.65;2.72;;;;;;;;;;5035681;28;20053;-87
2023/09/14 09:19:28;;;;;;;6.03;2.88;;;;;;;;;;5036446;28;20053;-86
2023/09/14 09:21:56;;;;;;;5.18;2.85;;;;;;;;;;5032054;28;20471;-85
2023/09/14 09:24:27;;;;;;;5.75;3.05;;;;;;;;;;5032782;28;20395;-87
2023/09/14 09:26:55;;;;;;;3.63;2.35;;;;;;;;;;5036414;28;20049;-89
2023/09/14 09:29:23;;;;;;;6.22;3.00;;;;;;;;;;5032783;28;20050;-87
2023/09/14 09:31:50;;;;;;;5.03;2.38;;;;;;;;;;5040855;28;20049;-87
2023/09/14 09:34:28;;;;;;;4.85;3.05;;;;;;;;;;5040920;28;20222;-85
2023/09/14 09:36:56;;;;;;;4.47;2.53;;;;;;;;;;5036473;28;20057;-86
2023/09/14 09:39:25;;;;;;;5.60;2.38;;;;;;;;;;5034648;28;20053;-86
2023/09/14 09:41:53;;;;;;;7.13;2.97;;;;;;;;;;5034889;28;20524;-89
2023/09/14 09:44:20;;;;;;;6.25;3.20;;;;;;;;;;5035019;28;20049;-85
2023/09/14 09:46:47;;;;;;;5.28;2.83;;;;;;;;;;5035146;28;20049;-86
2023/09/14 09:49:19;;;;;;;5.72;3.20;;;;;;;;;;5034917;28;20518;-86
2023/09/14 09:51:48;;;;;;;8.32;3.00;;;;;;;;;;5027395;28;20140;-86
2023/09/14 09:54:21;;;;;;;4.05;2.65;;;;;;;;;;5034934;28;20152;-86
2023/09/14 09:56:49;;;;;;;4.22;2.80;;;;;;;;;;5035882;28;20425;-86
2023/09/14 09:59:16;;;;;;;4.85;2.60;;;;;;;;;;5034975;28;20429;-86
2023/09/14 10:01:50;;;;;;;5.57;2.38;;;;;;;;;;5035670;28;20049;-85
2023/09/14 10:04:17;;;;;;;4.50;2.75;;;;;;;;;;5034614;28;20049;-86
2023/09/14 10:06:52;;;;;;;3.80;1.88;;;;;;;;;;5035615;28;20059;-84
2023/09/14 10:09:20;;;;;;;4.00;2.28;;;;;;;;;;5034542;28;20056;-87
2023/09/14 10:11:48;;;;;;;4.55;2.55;;;;;;;;;;5034658;28;20073;-87
2023/09/14 10:14:16;;;;;;;4.10;2.70;;;;;;;;;;5035275;28;20127;-85
2023/09/14 10:16:44;;;;;;;7.65;2.97;;;;;;;;;;5043140;28;20128;-86
2023/09/14 10:19:12;;;;;;;7.55;2.55;;;;;;;;;;5034500;28;20052;-87
2023/09/14 10:21:40;;;;;;;5.18;2.88;;;;;;;;;;5033888;28;20053;-86
2023/09/14 10:24:08;;;;;;;6.90;2.90;;;;;;;;;;5029789;28;20461;-87
2023/09/14 10:26:38;;;;;;;9.48;2.90;;;;;;;;;;5033131;28;20057;-85
2023/09/14 10:29:09;;;;;;;4.63;2.72;;;;;;;;;;5034870;28;20041;-86
2023/09/14 10:31:36;;;;;;;5.30;2.53;;;;;;;;;;5025909;28;20057;-86
2023/09/14 10:34:04;;;;;;;6.55;2.65;;;;;;;;;;5034351;28;20056;-86
2023/09/14 10:36:32;;;;;;;4.47;2.30;;;;;;;;;;5033926;28;20103;-85
2023/09/14 10:39:00;;;;;;;3.03;2.05;;;;;;;;;;5033583;28;20047;-86
2023/09/14 10:41:30;;;;;;;5.10;2.35;;;;;;;;;;5033570;28;20053;-85
2023/09/14 10:43:58;;;;;;;8.43;2.60;;;;;;;;;;5034591;28;20140;-86
2023/09/14 10:46:31;;;;;;;5.32;2.33;;;;;;;;;;5033818;28;20056;-86
2023/09/14 10:48:58;;;;;;;;;;;;;;;;;;5035771;28;20070;-86
2023/09/14 10:51:26;;;;;;;4.03;2.80;;;;;;;;;;5046398;28;19931;-85
2023/09/14 10:53:54;;;;;;;7.30;2.80;;;;;;;;;;5033731;28;20091;-86
2023/09/14 10:56:22;;;;;;;3.95;2.28;;;;;;;;;;5033499;28;20092;-87
2023/09/14 10:58:54;;;;;;;2.92;2.00;;;;;;;;;;5033704;28;20053;-87
2023/09/14 11:01:25;;;;;;;3.97;2.30;;;;;;;;;;5033996;28;20180;-86
2023/09/14 11:04:09;;;;;;;6.18;2.50;;;;;;;;;;5033214;28;20046;-85
2023/09/14 11:06:50;;;;;;;5.05;2.28;;;;;;;;;;5033308;28;20481;-85
2023/09/14 11:09:20;;;;;;;2.65;2.40;;;;;;;;;;5034211;28;20057;-87
2023/09/14 11:11:50;;;;;;;6.22;2.28;;;;;;;;;;5033572;28;20095;-84
2023/09/14 11:14:23;;;;;;;3.15;2.33;;;;;;;;;;5029892;28;20053;-86
2023/09/14 11:16:59;;;;;;;4.07;2.55;;;;;;;;;;5033381;28;20473;-86
2023/09/14 11:19:31;;;;;;;9.05;2.90;;;;;;;;;;5033128;28;20500;-86
2023/09/14 11:22:03;;;;;;;6.53;2.50;;;;;;;;;;5033431;28;20053;-87
2023/09/14 11:24:36;;;;;;;3.70;2.15;;;;;;;;;;5033250;28;20128;-87
2023/09/14 11:27:06;;;;;;;3.53;2.10;;;;;;;;;;5033227;28;20045;-86
2023/09/14 11:29:34;;;;;;;6.53;2.00;;;;;;;;;;5031878;28;20104;-87
2023/09/14 11:32:07;;;;;;;3.38;2.00;;;;;;;;;;5032930;28;20080;-86
2023/09/14 11:34:38;;;;;;;3.50;1.92;;;;;;;;;;5032621;28;20570;-87
2023/09/14 11:37:15;;;;;;;2.58;2.08;;;;;;;;;;5032966;28;20057;-86
2023/09/14 11:39:54;;;;;;;4.70;2.40;;;;;;;;;;5025387;28;20065;-87
2023/09/14 11:42:25;;;;;;;2.67;2.00;;;;;;;;;;5032387;28;20489;-86
2023/09/14 11:44:59;;;;;;;2.83;1.88;;;;;;;;;;5033198;28;20050;-87
2023/09/14 11:47:33;;;;;;;5.15;2.47;;;;;;;;;;5032917;28;20466;-87
2023/09/14 11:50:06;;;;;;;5.07;1.80;;;;;;;;;;5032948;28;20099;-87
2023/09/14 11:52:35;;;;;;;4.43;2.20;;;;;;;;;;5032627;28;20064;-88
2023/09/14 11:55:02;;;;;;;4.68;1.90;;;;;;;;;;5029298;28;20084;-86
2023/09/14 11:57:30;;;;;;;5.93;2.08;;;;;;;;;;5030912;28;20080;-87
2023/09/14 11:59:59;;;;;;;2.47;2.15;;;;;;;;;;5032578;28;20103;-86
2023/09/14 12:02:26;;;;;;;5.47;1.95;;;;;;;;;;5032480;28;20057;-87
2023/09/14 12:04:54;;;;;;;4.05;1.65;;;;;;;;;;5032593;28;20057;-85
2023/09/14 12:07:21;;;;;;;3.92;1.60;;;;;;;;;;5034293;28;20045;-87
2023/09/14 12:09:49;;;;;;;4.60;1.98;;;;;;;;;;5032603;28;20057;-86
2023/09/14 12:12:30;;;;;;;5.05;2.22;;;;;;;;;;5032755;28;20056;-87
2023/09/14 12:14:57;;;;;;;7.40;2.85;;;;;;;;;;5033747;28;20140;-85
2023/09/14 12:17:26;;;;;;;11.57;2.67;;;;;;;;;;5032512;28;20049;-85
2023/09/14 12:19:56;;;;;;;16.17;3.00;;;;;;;;;;5032383;28;20132;-86
2023/09/14 12:22:24;;;;;;;5.25;2.20;;;;;;;;;;5032499;28;20077;-87
2023/09/14 12:24:54;;;;;;;6.38;2.10;;;;;;;;;;5033059;28;20096;-87
2023/09/14 12:27:22;;;;;;;4.93;2.22;;;;;;;;;;5032946;28;20060;-88
2023/09/14 12:29:50;;;;;;;3.28;2.03;;;;;;;;;;5033235;28;20481;-88
2023/09/14 12:32:19;;;;;;;4.55;1.88;;;;;;;;;;5032195;28;20188;-87
2023/09/14 12:34:47;;;;;;;4.85;1.92;;;;;;;;;;5032105;28;20049;-87
2023/09/14 12:37:18;;;;;;;3.25;1.95;;;;;;;;;;5032052;28;20525;-87
2023/09/14 12:39:51;;;;;;;2.45;1.90;;;;;;;;;;5042471;28;20103;-88
2023/09/14 12:42:23;;;;;;;7.15;2.30;;;;;;;;;;5035422;28;20083;-86
2023/09/14 12:44:53;;;;;;;2.90;1.90;;;;;;;;;;5035410;28;20057;-88
2023/09/14 12:47:21;;;;;;;5.15;1.98;;;;;;;;;;5038793;28;20509;-87
2023/09/14 12:49:49;;;;;;;3.40;2.10;;;;;;;;;;5039320;28;20110;-85
2023/09/14 12:52:17;;;;;;;2.40;2.10;;;;;;;;;;5039323;28;20478;-86
2023/09/14 12:54:44;;;;;;;3.53;1.90;;;;;;;;;;5056472;28;20079;-85
2023/09/14 12:57:11;;;;;;;5.63;2.28;;;;;;;;;;5056458;28;20063;-84
2023/09/14 12:59:39;;;;;;;3.38;1.85;;;;;;;;;;5038877;28;20060;-84
2023/09/14 13:02:06;;;;;;;4.55;2.05;;;;;;;;;;5039091;28;20052;-87
2023/09/14 13:04:36;;;;;;;2.33;2.13;;;;;;;;;;5038634;28;20124;-85
2023/09/14 13:07:03;;;;;;;3.45;2.05;;;;;;;;;;5038741;28;20049;-84
2023/09/14 13:09:32;;;;;;;2.65;1.70;;;;;;;;;;5036784;28;20045;-88
2023/09/14 13:12:02;;;;;;;3.20;1.88;;;;;;;;;;5054882;28;20409;-86
2023/09/14 13:14:29;;;;;;;2.65;2.08;;;;;;;;;;5038689;28;20048;-88
2023/09/14 13:16:57;;;;;;;2.80;2.15;;;;;;;;;;5030872;28;20056;-86
2023/09/14 13:19:27;;;;;;;5.10;2.22;;;;;;;;;;5042217;28;20072;-86
2023/09/14 13:22:07;;;;;;;3.28;2.00;;;;;;;;;;5038904;28;20049;-86
2023/09/14 13:24:34;;;;;;;5.20;1.60;;;;;;;;;;5044225;28;20052;-87
2023/09/14 13:27:01;;;;;;;3.90;1.90;;;;;;;;;;5056334;28;20045;-86
2023/09/14 13:29:29;;;;;;;4.13;2.00;;;;;;;;;;5038993;28;20488;-86
2023/09/14 13:31:56;;;;;;;3.38;1.98;;;;;;;;;;5038668;28;20061;-86
2023/09/14 13:34:23;;;;;;;5.13;2.50;;;;;;;;;;5038184;28;20398;-86
2023/09/14 13:36:52;;;;;;;2.88;1.90;;;;;;;;;;5035315;28;20087;-90
2023/09/14 13:39:20;;;;;;;4.15;1.85;;;;;;;;;;5035036;28;20501;-87
2023/09/14 13:41:47;;;;;;;4.93;2.10;;;;;;;;;;5038425;28;20057;-85
2023/09/14 13:44:18;;;;;;;3.85;1.80;;;;;;;;;;5038726;28;20087;-86
2023/09/14 13:46:45;;;;;;;2.17;1.95;;;;;;;;;;5038745;28;20106;-85
2023/09/14 13:49:13;;;;;;;2.15;1.83;;;;;;;;;;5037972;28;20467;-86
2023/09/14 13:51:40;;;;;;;3.55;1.55;;;;;;;;;;5037976;28;20087;-86
2023/09/14 13:54:07;;;;;;;3.30;1.90;;;;;;;;;;5034749;28;20053;-86
2023/09/14 13:56:35;;;;;;;13.02;2.85;;;;;;;;;;5054237;28;20044;-85
2023/09/14 13:59:02;;;;;;;5.63;2.08;;;;;;;;;;5038548;28;20094;-85
2023/09/14 14:01:30;;;;;;;2.55;2.30;;;;;;;;;;5038267;28;20052;-87
2023/09/14 14:03:58;;;;;;;5.63;3.85;;;;;;;;;;5055131;28;20053;-87
2023/09/14 14:06:25;;;;;;;5.47;2.78;;;;;;;;;;5037795;28;20052;-86
2023/09/14 14:08:53;;;;;;;4.07;3.67;;;;;;;;;;5055296;28;20139;-86
2023/09/14 14:11:20;;;;;;;4.30;2.15;;;;;;;;;;5055142;28;20128;-86
2023/09/14 14:13:47;;;;;;;3.72;1.98;;;;;;;;;;5037887;28;20072;-86
2023/09/14 14:16:14;;;;;;;4.30;2.15;;;;;;;;;;5037529;28;20053;-86
2023/09/14 14:18:42;;;;;;;4.22;2.17;;;;;;;;;;5029560;28;20350;-87
2023/09/14 14:21:09;;;;;;;2.75;2.15;;;;;;;;;;5037839;28;20052;-86
2023/09/14 14:23:37;;;;;;;3.80;2.00;;;;;;;;;;5037600;28;20064;-86
2023/09/14 14:26:04;;;;;;;4.13;2.15;;;;;;;;;;5037355;28;20477;-87
2023/09/14 14:28:31;;;;;;;4.85;1.77;;;;;;;;;;5037646;28;20049;-85
2023/09/14 14:30:58;;;;;;;2.03;1.80;;;;;;;;;;5037517;28;20053;-87
2023/09/14 14:33:26;;;;;;;2.70;1.98;;;;;;;;;;5037624;28;20053;-86
2023/09/14 14:35:56;;;;;;;2.25;2.05;;;;;;;;;;5038028;28;20052;-87
2023/09/14 14:38:23;;;;;;;3.28;1.90;;;;;;;;;;5037255;28;20091;-87
2023/09/14 14:40:50;;;;;;;4.53;2.20;;;;;;;;;;5042320;28;20057;-86
2023/09/14 14:43:37;;;;;;;3.88;2.38;;;;;;;;;;5047622;28;20053;-88
2023/09/14 14:46:04;;;;;;;4.57;2.65;;;;;;;;;;5037202;28;20099;-85
2023/09/14 14:48:32;;;;;;;3.13;1.92;;;;;;;;;;5037212;28;20045;-85